createdAt,value
2018-12-05T00:01:07.153Z,27.87
2018-12-05T00:03:34.572Z,25.60
2018-12-05T00:06:02.654Z,27.27
2018-12-05T00:08:30.096Z,35.03
2018-12-05T00:10:57.968Z,24.33
2018-12-05T00:13:25.384Z,28.93
2018-12-05T00:15:52.813Z,25.50
2018-12-05T00:18:20.662Z,23.40
2018-12-05T00:20:48.153Z,23.77
2018-12-05T00:23:16.116Z,19.23
2018-12-05T00:25:43.537Z,22.53
2018-12-05T00:28:10.957Z,26.60
2018-12-05T00:30:38.925Z,26.50
2018-12-05T00:33:06.348Z,18.30
2018-12-05T00:35:34.666Z,25.43
2018-12-05T00:38:02.241Z,20.83
2018-12-05T00:40:29.725Z,27.27
2018-12-05T00:42:57.576Z,24.30
2018-12-05T00:45:25.000Z,20.97
2018-12-05T00:47:52.420Z,28.40
2018-12-05T00:50:19.875Z,26.40
2018-12-05T00:52:49.711Z,25.60
2018-12-05T00:55:17.172Z,28.10
2018-12-05T00:57:44.909Z,23.97
2018-12-05T01:00:13.042Z,31.17
2018-12-05T01:02:43.116Z,25.70
2018-12-05T01:05:10.725Z,24.97
2018-12-05T01:07:38.136Z,26.60
2018-12-05T01:10:06.612Z,27.47
2018-12-05T01:12:34.083Z,20.37
2018-12-05T01:15:01.505Z,24.03
2018-12-05T01:17:30.810Z,39.50
2018-12-05T01:19:58.301Z,36.23
2018-12-05T01:22:25.717Z,32.93
2018-12-05T01:24:53.216Z,37.90
2018-12-05T01:27:20.707Z,41.60
2018-12-05T01:29:48.668Z,38.70
2018-12-05T01:32:16.087Z,29.97
2018-12-05T01:34:43.584Z,30.83
2018-12-05T01:37:11.040Z,29.33
2018-12-05T01:39:38.811Z,33.20
2018-12-05T01:42:06.308Z,31.97
2018-12-05T01:44:33.728Z,31.20
2018-12-05T01:47:01.382Z,33.47
2018-12-05T01:49:28.800Z,34.00
2018-12-05T01:51:56.218Z,28.40
2018-12-05T01:54:24.176Z,34.33
2018-12-05T01:56:52.208Z,29.93
2018-12-05T01:59:19.690Z,36.40
2018-12-05T02:01:47.145Z,26.13
2018-12-05T02:04:14.600Z,33.70
2018-12-05T02:06:42.040Z,30.50
2018-12-05T02:09:09.512Z,26.17
2018-12-05T02:11:40.261Z,25.87
2018-12-05T02:14:07.681Z,27.37
2018-12-05T02:16:35.598Z,26.27
2018-12-05T02:19:04.521Z,34.50
2018-12-05T02:21:32.421Z,29.63
2018-12-05T02:23:59.843Z,26.93
2018-12-05T02:26:28.066Z,29.30
2018-12-05T02:29:10.264Z,23.27
2018-12-05T02:31:37.680Z,21.77
2018-12-05T02:34:05.203Z,24.97
2018-12-05T02:36:33.124Z,23.97
2018-12-05T02:39:00.546Z,21.40
2018-12-05T02:41:28.048Z,25.23
2018-12-05T02:43:57.936Z,23.77
2018-12-05T02:46:25.396Z,24.80
2018-12-05T02:48:52.833Z,28.47
2018-12-05T02:51:23.103Z,27.27
2018-12-05T02:53:54.320Z,21.60
2018-12-05T02:56:22.133Z,26.80
2018-12-05T02:58:49.537Z,20.83
2018-12-05T03:01:16.948Z,23.67
2018-12-05T03:03:44.910Z,23.47
2018-12-05T03:06:12.410Z,21.90
2018-12-05T03:08:40.039Z,17.50
2018-12-05T03:11:07.889Z,24.30
2018-12-05T03:13:35.306Z,22.23
2018-12-05T03:16:02.815Z,19.90
2018-12-05T03:18:30.776Z,19.27
2018-12-05T03:20:58.474Z,20.73
2018-12-05T03:23:25.892Z,20.80
2018-12-05T03:25:53.388Z,23.10
2018-12-05T03:28:21.087Z,28.17
2018-12-05T03:30:48.477Z,25.33
2018-12-05T03:33:16.397Z,26.47
2018-12-05T03:35:43.968Z,29.57
2018-12-05T03:38:11.677Z,36.47
2018-12-05T03:40:39.342Z,33.00
2018-12-05T03:43:07.221Z,51.03
2018-12-05T03:45:34.724Z,29.87
2018-12-05T03:48:02.125Z,39.77
2018-12-05T03:50:30.057Z,49.47
2018-12-05T03:52:57.977Z,47.73
2018-12-05T03:55:25.397Z,40.70
2018-12-05T03:57:54.153Z,48.27
2018-12-05T04:00:21.635Z,60.30
2018-12-05T04:02:49.787Z,49.63
2018-12-05T04:05:17.628Z,42.60
2018-12-05T04:07:45.057Z,33.83
2018-12-05T04:10:15.995Z,37.60
2018-12-05T04:12:45.441Z,42.77
2018-12-05T04:15:13.214Z,33.77
2018-12-05T04:17:41.436Z,32.53
2018-12-05T04:20:08.864Z,34.10
2018-12-05T04:22:36.294Z,32.07
2018-12-05T04:25:04.860Z,24.50
2018-12-05T04:27:32.814Z,29.97
2018-12-05T04:30:01.259Z,29.10
2018-12-05T04:32:29.167Z,37.70
2018-12-05T04:34:56.668Z,27.87
2018-12-05T04:37:24.093Z,24.57
2018-12-05T04:39:52.001Z,31.63
2018-12-05T04:42:19.440Z,25.50
2018-12-05T04:44:46.934Z,33.93
2018-12-05T04:47:14.401Z,32.37
2018-12-05T04:49:41.837Z,29.77
2018-12-05T04:52:09.686Z,25.53
2018-12-05T04:54:37.146Z,24.37
2018-12-05T04:57:04.705Z,31.57
2018-12-05T04:59:33.956Z,33.40
2018-12-05T05:02:01.987Z,37.97
2018-12-05T05:04:30.220Z,37.17
2018-12-05T05:06:57.645Z,39.97
2018-12-05T05:09:25.985Z,39.57
2018-12-05T05:11:53.520Z,37.20
2018-12-05T05:14:21.361Z,39.30
2018-12-05T05:16:48.780Z,37.50
2018-12-05T05:19:16.261Z,44.37
2018-12-05T05:21:43.765Z,44.47
2018-12-05T05:24:11.740Z,38.93
2018-12-05T05:26:39.664Z,43.57
2018-12-05T05:29:07.116Z,50.97
2018-12-05T05:31:35.201Z,45.83
2018-12-05T05:34:02.713Z,39.93
2018-12-05T05:36:30.225Z,41.57
2018-12-05T05:38:57.628Z,39.63
2018-12-05T05:41:25.075Z,49.90
2018-12-05T05:43:52.498Z,45.20
2018-12-05T05:46:19.970Z,41.37
2018-12-05T05:48:47.438Z,43.87
2018-12-05T05:51:14.859Z,40.37
2018-12-05T05:53:49.013Z,39.20
2018-12-05T05:56:16.507Z,38.13
2018-12-05T05:58:43.932Z,36.37
2018-12-05T06:01:11.361Z,30.00
2018-12-05T06:03:38.817Z,31.30
2018-12-05T06:06:06.233Z,31.43
2018-12-05T06:08:34.352Z,40.90
2018-12-05T06:11:01.860Z,29.43
2018-12-05T06:13:31.706Z,41.63
2018-12-05T06:16:00.113Z,36.00
2018-12-05T06:18:27.532Z,32.13
2018-12-05T06:20:58.188Z,34.43
2018-12-05T06:23:25.592Z,25.97
2018-12-05T06:25:53.021Z,28.93
2018-12-05T06:28:20.452Z,26.07
2018-12-05T06:30:47.887Z,28.73
2018-12-05T06:33:15.304Z,32.13
2018-12-05T06:38:17.708Z,39.27
2018-12-05T06:40:45.130Z,36.73
2018-12-05T06:43:12.621Z,34.60
2018-12-05T06:45:40.094Z,42.07
2018-12-05T06:48:07.516Z,41.20
2018-12-05T06:50:35.237Z,38.00
2018-12-05T06:53:03.070Z,41.77
2018-12-05T06:55:30.569Z,31.30
2018-12-05T06:57:58.525Z,29.77
2018-12-05T07:00:25.944Z,34.00
2018-12-05T07:02:53.920Z,29.57
2018-12-05T07:05:21.339Z,31.33
2018-12-05T07:07:48.944Z,33.10
2018-12-05T07:10:16.465Z,29.03
2018-12-05T07:12:43.929Z,32.67
2018-12-05T07:15:11.369Z,28.57
2018-12-05T07:17:38.794Z,33.83
2018-12-05T07:20:07.685Z,27.40
2018-12-05T07:22:35.103Z,26.97
2018-12-05T07:25:02.638Z,29.27
2018-12-05T07:27:30.057Z,26.07
2018-12-05T07:29:57.488Z,26.23
2018-12-05T07:32:25.364Z,31.07
2018-12-05T07:34:52.782Z,34.03
2018-12-05T07:37:20.217Z,27.50
2018-12-05T07:39:48.349Z,30.07
2018-12-05T07:42:16.357Z,37.90
2018-12-05T07:44:43.784Z,34.10
2018-12-05T07:47:11.204Z,27.03
2018-12-05T07:49:38.626Z,52.57
2018-12-05T07:52:06.053Z,45.20
2018-12-05T07:54:33.550Z,23.23
2018-12-05T07:57:01.017Z,27.80
2018-12-05T07:59:28.526Z,26.37
2018-12-05T08:01:55.944Z,28.43
2018-12-05T08:04:23.369Z,26.90
2018-12-05T08:06:50.872Z,25.77
2018-12-05T08:09:20.710Z,25.50
2018-12-05T08:11:48.448Z,27.03
2018-12-05T08:14:15.945Z,26.27
2018-12-05T08:16:43.369Z,28.50
2018-12-05T08:19:10.786Z,23.70
2018-12-05T08:21:38.204Z,29.23
2018-12-05T08:24:05.632Z,27.40
2018-12-05T08:26:33.050Z,26.50
2018-12-05T08:29:00.469Z,21.83
2018-12-05T08:31:27.964Z,23.70
2018-12-05T08:33:55.393Z,21.93
2018-12-05T08:36:22.826Z,19.93
2018-12-05T08:38:51.281Z,21.53
2018-12-05T08:41:18.807Z,18.87
2018-12-05T08:43:46.388Z,15.67
2018-12-05T08:46:13.825Z,22.50
2018-12-05T08:48:41.651Z,26.87
2018-12-05T08:51:11.586Z,23.87
2018-12-05T08:53:39.083Z,22.97
2018-12-05T08:56:06.551Z,25.90
2018-12-05T08:58:34.683Z,23.30
2018-12-05T09:01:02.177Z,25.37
2018-12-05T09:03:29.675Z,22.67
2018-12-05T09:05:57.660Z,16.27
2018-12-05T09:08:25.490Z,14.77
2018-12-05T09:10:52.882Z,14.30
2018-12-05T09:13:20.868Z,15.30
2018-12-05T09:15:48.317Z,11.80
2018-12-05T09:18:15.738Z,14.03
2018-12-05T09:20:43.600Z,15.67
2018-12-05T09:23:11.016Z,13.13
2018-12-05T09:25:38.432Z,13.97
2018-12-05T09:28:06.657Z,16.07
2018-12-05T09:30:34.232Z,21.67
2018-12-05T09:33:02.078Z,14.17
2018-12-05T09:35:29.492Z,16.93
2018-12-05T09:37:57.345Z,11.97
2018-12-05T09:40:25.306Z,11.53
2018-12-05T09:42:52.798Z,10.60
2018-12-05T09:45:20.377Z,10.00
2018-12-05T09:47:49.199Z,10.70
2018-12-05T09:50:16.914Z,8.97
2018-12-05T09:52:44.412Z,11.00
2018-12-05T09:55:11.868Z,13.67
2018-12-05T09:57:39.281Z,8.80
2018-12-05T10:00:09.076Z,9.00
2018-12-05T10:02:36.499Z,15.10
2018-12-05T10:05:06.384Z,10.70
2018-12-05T10:07:33.795Z,7.97
2018-12-05T10:12:34.491Z,11.00
2018-12-05T10:15:02.169Z,12.30
2018-12-05T10:17:29.778Z,10.10
2018-12-05T10:19:58.305Z,9.67
2018-12-05T10:22:25.723Z,8.90
2018-12-05T10:24:53.140Z,9.73
2018-12-05T10:27:21.184Z,8.23
2018-12-05T10:29:48.711Z,6.70
2018-12-05T10:32:16.142Z,7.43
2018-12-05T10:34:43.627Z,7.57
2018-12-05T10:37:11.030Z,9.57
2018-12-05T10:39:38.450Z,8.77
2018-12-05T10:42:05.964Z,8.53
2018-12-05T10:44:33.389Z,9.23
2018-12-05T10:47:00.924Z,8.53
2018-12-05T10:49:28.349Z,7.43
2018-12-05T10:51:55.756Z,8.53
2018-12-05T10:54:23.366Z,7.80
2018-12-05T10:56:50.821Z,8.50
2018-12-05T10:59:18.270Z,8.37
2018-12-05T11:05:00.519Z,8.77
2018-12-05T11:07:33.664Z,9.17
2018-12-05T11:10:06.849Z,12.60
2018-12-05T11:12:42.170Z,8.83
2018-12-05T11:15:15.585Z,8.67
2018-12-05T11:17:44.928Z,11.10
2018-12-05T11:20:18.833Z,8.40
2018-12-05T11:22:52.676Z,7.73
2018-12-05T11:25:21.073Z,9.13
2018-12-05T11:27:48.474Z,7.83
2018-12-05T11:30:15.888Z,7.57
2018-12-05T11:32:43.306Z,11.63
2018-12-05T11:35:12.423Z,12.37
2018-12-05T11:37:39.986Z,11.00
2018-12-05T11:40:07.441Z,10.30
2018-12-05T11:42:34.875Z,12.63
2018-12-05T11:45:02.498Z,9.83
2018-12-05T11:47:29.958Z,9.67
2018-12-05T11:49:57.374Z,11.33
2018-12-05T11:52:24.787Z,10.50
2018-12-05T11:54:52.349Z,8.67
2018-12-05T11:57:19.903Z,9.80
2018-12-05T11:59:47.315Z,10.20
2018-12-05T12:02:22.145Z,10.57
2018-12-05T12:04:44.340Z,10.67
2018-12-05T12:07:11.978Z,7.93
2018-12-05T12:09:39.493Z,8.97
2018-12-05T12:12:09.760Z,9.13
2018-12-05T12:14:37.286Z,8.07
2018-12-05T12:17:04.715Z,7.93
2018-12-05T12:19:32.820Z,8.87
2018-12-05T12:22:00.937Z,10.80
2018-12-05T12:24:34.726Z,13.10
2018-12-05T12:26:57.798Z,9.73
2018-12-05T12:29:25.921Z,8.40
2018-12-05T12:31:53.417Z,10.50
2018-12-05T12:34:21.238Z,10.93
2018-12-05T12:36:48.740Z,11.83
2018-12-05T12:39:16.601Z,11.97
2018-12-05T12:41:44.049Z,13.87
2018-12-05T12:44:12.544Z,13.03
2018-12-05T12:46:40.400Z,12.87
2018-12-05T12:49:08.836Z,8.97
2018-12-05T12:51:36.794Z,8.30
2018-12-05T12:54:04.780Z,9.50
2018-12-05T12:56:32.331Z,10.43
2018-12-05T12:59:00.147Z,15.70
2018-12-05T13:01:27.760Z,9.63
2018-12-05T13:03:55.182Z,9.00
2018-12-05T13:06:22.671Z,8.23
2018-12-05T13:08:50.133Z,11.03
2018-12-05T13:11:17.557Z,12.27
2018-12-05T13:13:45.490Z,10.63
2018-12-05T13:16:12.885Z,7.73
2018-12-05T13:18:40.405Z,9.47
2018-12-05T13:21:08.548Z,10.07
2018-12-05T13:23:35.964Z,8.27
2018-12-05T13:26:04.262Z,9.93
2018-12-05T13:28:31.757Z,14.47
2018-12-05T13:30:59.181Z,8.57
2018-12-05T13:33:26.592Z,8.40
2018-12-05T13:35:54.035Z,10.17
2018-12-05T13:38:21.559Z,11.47
2018-12-05T13:40:49.529Z,16.73
2018-12-05T13:43:17.035Z,11.00
2018-12-05T13:45:44.501Z,8.77
2018-12-05T13:48:11.945Z,10.70
2018-12-05T13:50:39.527Z,10.00
2018-12-05T13:53:07.060Z,8.53
2018-12-05T13:55:34.928Z,13.60
2018-12-05T13:58:03.323Z,9.90
2018-12-05T14:00:30.782Z,8.50
2018-12-05T14:02:58.316Z,17.60
2018-12-05T14:05:26.284Z,11.03
2018-12-05T14:07:54.308Z,12.17
2018-12-05T14:10:21.774Z,12.33
2018-12-05T14:12:49.213Z,11.33
2018-12-05T14:15:18.495Z,13.13
2018-12-05T14:17:45.965Z,13.93
2018-12-05T14:20:13.440Z,13.20
2018-12-05T14:22:40.856Z,14.07
2018-12-05T14:25:08.841Z,14.27
2018-12-05T14:27:36.286Z,11.97
2018-12-05T14:30:07.216Z,17.33
2018-12-05T14:32:35.199Z,12.33
2018-12-05T14:35:02.630Z,13.73
2018-12-05T14:37:30.040Z,14.17
2018-12-05T14:39:57.518Z,15.13
2018-12-05T14:42:25.051Z,13.67
2018-12-05T14:44:52.511Z,12.00
2018-12-05T14:47:19.948Z,13.90
2018-12-05T14:49:47.361Z,16.87
2018-12-05T14:52:15.223Z,15.83
2018-12-05T14:54:42.666Z,16.03
2018-12-05T14:57:10.112Z,12.73
2018-12-05T14:59:37.537Z,19.93
2018-12-05T15:02:04.955Z,16.50
2018-12-05T15:04:32.464Z,14.67
2018-12-05T15:06:59.902Z,14.33
2018-12-05T15:09:27.418Z,18.00
2018-12-05T15:11:54.965Z,16.40
2018-12-05T15:14:28.260Z,17.53
2018-12-05T15:16:55.722Z,21.03
2018-12-05T15:19:23.144Z,16.50
2018-12-05T15:21:50.648Z,22.27
2018-12-05T15:24:18.498Z,17.90
2018-12-05T15:26:46.197Z,20.30
2018-12-05T15:29:13.715Z,15.43
2018-12-05T15:31:41.252Z,16.10
2018-12-05T15:34:08.668Z,21.97
2018-12-05T15:36:36.616Z,22.17
2018-12-05T15:39:06.513Z,21.37
2018-12-05T15:41:33.979Z,17.80
2018-12-05T15:46:35.392Z,17.60
2018-12-05T15:49:02.854Z,19.23
2018-12-05T15:51:30.840Z,18.17
2018-12-05T15:53:58.290Z,19.40
2018-12-05T15:58:59.636Z,15.87
2018-12-05T16:01:27.062Z,17.40
2018-12-05T16:03:55.243Z,18.20
2018-12-05T16:06:22.740Z,19.33
2018-12-05T16:08:50.178Z,16.87
2018-12-05T16:11:17.663Z,15.47
2018-12-05T16:13:45.137Z,21.03
2018-12-05T16:16:12.870Z,16.67
2018-12-05T16:18:40.828Z,15.50
2018-12-05T16:21:08.256Z,17.93
2018-12-05T16:23:35.685Z,21.47
2018-12-05T16:26:10.436Z,15.50
2018-12-05T16:28:32.981Z,17.20
2018-12-05T16:31:00.401Z,13.53
2018-12-05T16:33:27.820Z,15.10
2018-12-05T16:35:55.252Z,28.53
2018-12-05T16:38:22.683Z,19.97
2018-12-05T16:40:50.188Z,22.17
2018-12-05T16:43:17.611Z,18.47
2018-12-05T16:45:45.117Z,21.83
2018-12-05T16:48:13.708Z,19.13
2018-12-05T16:50:41.249Z,16.83
2018-12-05T16:53:08.705Z,16.47
2018-12-05T16:55:36.940Z,16.33
2018-12-05T16:58:04.497Z,17.90
2018-12-05T17:00:31.909Z,20.80
2018-12-05T17:02:59.668Z,20.13
2018-12-05T17:05:27.121Z,19.50
2018-12-05T17:07:54.536Z,21.27
2018-12-05T17:10:21.966Z,17.73
2018-12-05T17:12:49.897Z,18.83
2018-12-05T17:15:17.433Z,19.87
2018-12-05T17:17:44.861Z,18.53
2018-12-05T17:20:12.322Z,18.13
2018-12-05T17:22:39.812Z,30.67
2018-12-05T17:25:07.892Z,24.87
2018-12-05T17:27:35.864Z,23.87
2018-12-05T17:30:04.680Z,18.30
2018-12-05T17:32:32.237Z,17.87
2018-12-05T17:34:59.688Z,20.10
2018-12-05T17:37:27.637Z,19.10
2018-12-05T17:39:55.053Z,19.80
2018-12-05T17:42:23.221Z,19.97
2018-12-05T17:44:50.831Z,19.20
2018-12-05T17:47:18.813Z,21.17
2018-12-05T17:49:46.223Z,20.97
2018-12-05T17:52:13.649Z,20.53
2018-12-05T17:54:41.069Z,20.43
2018-12-05T17:57:08.504Z,17.00
2018-12-05T17:59:36.369Z,18.90
2018-12-05T18:02:03.791Z,17.80
2018-12-05T18:04:31.964Z,18.50
2018-12-05T18:06:59.406Z,18.83
2018-12-05T18:09:27.181Z,23.87
2018-12-05T18:11:54.706Z,21.27
2018-12-05T18:14:22.815Z,22.43
2018-12-05T18:16:50.273Z,20.67
2018-12-05T18:19:18.768Z,21.13
2018-12-05T18:21:46.596Z,20.23
2018-12-05T18:24:14.024Z,21.70
2018-12-05T18:26:41.447Z,23.23
2018-12-05T18:29:09.933Z,21.43
2018-12-05T18:31:37.362Z,18.80
2018-12-05T18:34:04.897Z,18.23
2018-12-05T18:36:32.384Z,21.20
2018-12-05T18:38:59.876Z,17.73
2018-12-05T18:41:27.318Z,21.00
2018-12-05T18:43:54.783Z,18.13
2018-12-05T18:46:22.209Z,19.43
2018-12-05T18:48:49.671Z,18.20
2018-12-05T18:51:17.618Z,20.63
2018-12-05T18:53:45.077Z,19.77
2018-12-05T18:56:12.497Z,20.77
2018-12-05T18:58:39.924Z,18.40
2018-12-05T19:01:07.861Z,22.20
2018-12-05T19:03:35.537Z,23.20
2018-12-05T19:06:03.008Z,21.50
2018-12-05T19:08:34.216Z,24.43
2018-12-05T19:10:59.965Z,21.53
2018-12-05T19:13:28.328Z,20.37
2018-12-05T19:15:55.747Z,20.90
2018-12-05T19:18:23.588Z,21.83
2018-12-05T19:20:51.733Z,25.03
2018-12-05T19:23:21.526Z,32.10
2018-12-05T19:25:49.062Z,34.80
2018-12-05T19:28:16.830Z,23.47
2018-12-05T19:30:44.341Z,24.13
2018-12-05T19:33:11.772Z,21.27
2018-12-05T19:35:39.256Z,24.17
2018-12-05T19:38:07.215Z,28.27
2018-12-05T19:40:34.641Z,26.87
2018-12-05T19:43:02.086Z,28.23
2018-12-05T19:45:29.519Z,28.50
2018-12-05T19:47:56.957Z,30.47
2018-12-05T19:50:24.396Z,24.23
2018-12-05T19:52:52.257Z,26.13
2018-12-05T19:55:19.688Z,31.63
2018-12-05T19:57:47.105Z,25.33
2018-12-05T20:00:14.608Z,23.97
2018-12-05T20:02:42.025Z,25.93
2018-12-05T20:05:09.938Z,28.03
2018-12-05T20:07:37.329Z,23.07
2018-12-05T20:10:04.839Z,26.60
2018-12-05T20:12:32.795Z,25.23
2018-12-05T20:15:01.721Z,33.43
2018-12-05T20:17:29.217Z,27.43
2018-12-05T20:19:56.639Z,33.43
2018-12-05T20:22:24.089Z,35.20
2018-12-05T20:24:51.521Z,33.03
2018-12-05T20:27:19.688Z,24.07
2018-12-05T20:29:47.134Z,28.23
2018-12-05T20:32:14.632Z,22.30
2018-12-05T20:34:42.138Z,23.77
2018-12-05T20:37:10.168Z,25.20
2018-12-05T20:39:37.588Z,31.43
2018-12-05T20:42:05.094Z,32.50
2018-12-05T20:44:32.577Z,30.00
2018-12-05T20:47:00.084Z,47.20
2018-12-05T20:49:27.573Z,47.97
2018-12-05T20:51:55.417Z,66.57
2018-12-05T20:54:24.072Z,56.23
2018-12-05T20:56:51.498Z,35.57
2018-12-05T20:59:18.961Z,25.63
2018-12-05T21:01:48.469Z,27.73
2018-12-05T21:04:16.088Z,59.03
2018-12-05T21:06:43.594Z,58.07
2018-12-05T21:09:11.132Z,34.77
2018-12-05T21:11:39.482Z,34.60
2018-12-05T21:14:09.452Z,27.03
2018-12-05T21:16:36.925Z,25.83
2018-12-05T21:19:04.448Z,26.07
2018-12-05T21:21:31.887Z,24.07
2018-12-05T21:23:59.735Z,26.40
2018-12-05T21:26:28.581Z,24.80
2018-12-05T21:28:56.037Z,27.00
2018-12-05T21:31:23.497Z,19.23
2018-12-05T21:33:51.963Z,24.23
2018-12-05T21:36:19.529Z,23.87
2018-12-05T21:38:46.940Z,23.73
2018-12-05T21:41:14.365Z,22.43
2018-12-05T21:43:42.097Z,25.97
2018-12-05T21:46:09.511Z,24.67
2018-12-05T21:48:37.005Z,25.10
2018-12-05T21:51:04.465Z,21.00
2018-12-05T21:53:31.876Z,23.33
2018-12-05T21:55:59.320Z,24.27
2018-12-05T21:58:26.730Z,19.43
2018-12-05T22:00:54.232Z,21.57
2018-12-05T22:03:21.741Z,21.50
2018-12-05T22:05:49.250Z,25.07
2018-12-05T22:08:16.712Z,23.80
2018-12-05T22:10:44.138Z,22.97
2018-12-05T22:13:11.576Z,25.50
2018-12-05T22:15:39.003Z,23.63
2018-12-05T22:18:06.477Z,20.13
2018-12-05T22:20:33.979Z,23.07
2018-12-05T22:23:01.405Z,23.47
2018-12-05T22:25:29.364Z,20.17
2018-12-05T22:27:57.025Z,21.73
2018-12-05T22:30:24.444Z,19.70
2018-12-05T22:32:51.945Z,20.37
2018-12-05T22:35:19.366Z,19.80
2018-12-05T22:37:46.900Z,21.97
2018-12-05T22:40:14.333Z,23.20
2018-12-05T22:42:41.875Z,22.67
2018-12-05T22:45:09.912Z,20.43
2018-12-05T22:47:38.653Z,22.07
2018-12-05T22:50:06.877Z,20.70
2018-12-05T22:52:34.312Z,18.60
2018-12-05T22:55:01.832Z,17.67
2018-12-05T22:57:30.203Z,19.77
2018-12-05T22:59:58.293Z,20.53
2018-12-05T23:02:25.757Z,21.27
2018-12-05T23:04:55.744Z,21.80
2018-12-05T23:07:23.212Z,19.90
2018-12-05T23:09:50.637Z,23.37
2018-12-05T23:12:19.473Z,18.60
2018-12-05T23:14:47.427Z,19.47
2018-12-05T23:17:14.876Z,19.40
2018-12-05T23:19:42.572Z,20.47
2018-12-05T23:22:10.861Z,21.20
2018-12-05T23:24:38.384Z,19.20
2018-12-05T23:27:05.880Z,25.13
2018-12-05T23:29:33.564Z,22.83
2018-12-05T23:32:01.493Z,25.27
2018-12-05T23:34:29.458Z,20.97
2018-12-05T23:36:57.658Z,21.00
2018-12-05T23:39:25.209Z,21.07
2018-12-05T23:41:52.724Z,24.10
2018-12-05T23:44:20.168Z,27.67
2018-12-05T23:46:47.613Z,23.80
2018-12-05T23:49:15.033Z,20.27
2018-12-05T23:51:42.456Z,21.53
2018-12-05T23:54:09.877Z,21.00
2018-12-05T23:56:37.292Z,24.63
2018-12-05T23:59:05.181Z,18.20
